Time;durP1;ratioP1;P1;durP2;ratioP2;P2;SDS_P1;SDS_P2;PMS_P1;PMS_P2;Temp;Humidity;BMP_temperature;BMP_pressure;BME280_temperature;BME280_humidity;BME280_pressure;Samples;Min_cycle;Max_cycle;Signal;HPM_P1;HPM_P2
2022/02/15 00:01:53;;;;;;;111.05;48.50;;;;;;;;;;5084478;28;20691;-92
2022/02/15 00:04:20;;;;;;;117.75;52.65;;;;;;;;;;5083953;28;20223;-92
2022/02/15 00:06:46;;;;;;;104.00;49.28;;;;;;;;;;5083165;28;20233;-92
2022/02/15 00:09:13;;;;;;;103.40;48.25;;;;;;;;;;5083436;28;20191;-92
2022/02/15 00:11:41;;;;;;;110.55;51.40;;;;;;;;;;5083931;28;20200;-92
2022/02/15 00:14:08;;;;;;;106.85;50.83;;;;;;;;;;5083900;28;20242;-92
2022/02/15 00:16:34;;;;;;;104.97;51.30;;;;;;;;;;5084176;28;20294;-92
2022/02/15 00:19:01;;;;;;;113.20;52.13;;;;;;;;;;5084008;28;20242;-92
2022/02/15 00:21:27;;;;;;;108.63;47.88;;;;;;;;;;5083800;28;20206;-92
2022/02/15 00:23:54;;;;;;;128.82;53.53;;;;;;;;;;5083752;28;20223;-92
2022/02/15 00:26:20;;;;;;;112.60;52.17;;;;;;;;;;5081995;28;20199;-92
2022/02/15 00:28:48;;;;;;;118.88;50.70;;;;;;;;;;5082850;28;20203;-92
2022/02/15 00:31:14;;;;;;;105.65;50.17;;;;;;;;;;5083894;28;20207;-93
2022/02/15 00:33:41;;;;;;;109.43;51.20;;;;;;;;;;5083178;28;20304;-92
2022/02/15 00:36:07;;;;;;;106.07;48.88;;;;;;;;;;5081662;28;20225;-92
2022/02/15 00:38:34;;;;;;;111.97;48.38;;;;;;;;;;5082519;28;20203;-91
2022/02/15 00:41:03;;;;;;;106.75;49.33;;;;;;;;;;5083413;28;20199;-92
2022/02/15 00:43:29;;;;;;;102.40;49.35;;;;;;;;;;5083934;28;20202;-92
2022/02/15 00:45:57;;;;;;;107.65;50.65;;;;;;;;;;5083322;28;20207;-92
2022/02/15 00:48:24;;;;;;;114.55;51.17;;;;;;;;;;5083391;28;20231;-93
2022/02/15 00:50:50;;;;;;;110.57;49.90;;;;;;;;;;5082631;28;20252;-93
2022/02/15 00:53:17;;;;;;;106.30;50.08;;;;;;;;;;5083070;28;20203;-92
2022/02/15 00:55:43;;;;;;;117.88;50.80;;;;;;;;;;5083062;28;20229;-92
2022/02/15 00:58:09;;;;;;;112.65;49.80;;;;;;;;;;5083384;28;20222;-92
2022/02/15 01:00:36;;;;;;;106.07;47.10;;;;;;;;;;5082690;28;20217;-92
2022/02/15 01:03:04;;;;;;;108.97;50.00;;;;;;;;;;5082549;28;20231;-92
2022/02/15 01:05:30;;;;;;;107.72;50.00;;;;;;;;;;5082818;28;20271;-93
2022/02/15 01:07:57;;;;;;;108.15;50.22;;;;;;;;;;5082785;28;20203;-92
2022/02/15 01:10:23;;;;;;;109.75;51.85;;;;;;;;;;5082319;28;20192;-93
2022/02/15 01:12:50;;;;;;;106.53;50.22;;;;;;;;;;5077387;28;20298;-92
2022/02/15 01:15:16;;;;;;;113.75;50.35;;;;;;;;;;5069593;28;20222;-92
2022/02/15 01:17:43;;;;;;;108.70;49.70;;;;;;;;;;5082122;28;20237;-93
2022/02/15 01:20:11;;;;;;;107.32;51.03;;;;;;;;;;5080957;28;20199;-93
2022/02/15 01:22:38;;;;;;;106.82;48.08;;;;;;;;;;5080602;28;20850;-93
2022/02/15 01:25:05;;;;;;;110.28;48.65;;;;;;;;;;5081416;28;20241;-93
2022/02/15 01:27:31;;;;;;;107.60;49.67;;;;;;;;;;5081847;28;20207;-92
2022/02/15 01:29:58;;;;;;;113.22;51.80;;;;;;;;;;5081667;28;20203;-93
2022/02/15 01:32:24;;;;;;;103.88;49.67;;;;;;;;;;5082089;28;21067;-92
2022/02/15 01:34:51;;;;;;;105.88;49.08;;;;;;;;;;5081676;28;20222;-92
2022/02/15 01:37:19;;;;;;;110.45;49.78;;;;;;;;;;5071133;28;20233;-93
2022/02/15 01:39:45;;;;;;;105.60;48.10;;;;;;;;;;5063826;28;20215;-93
2022/02/15 01:42:12;;;;;;;108.15;49.00;;;;;;;;;;5082664;28;20248;-92
2022/02/15 01:44:38;;;;;;;111.90;50.42;;;;;;;;;;5081881;28;20663;-92
2022/02/15 01:47:05;;;;;;;111.28;49.10;;;;;;;;;;5082729;28;20203;-92
2022/02/15 01:49:31;;;;;;;118.13;55.05;;;;;;;;;;5081659;28;20229;-93
2022/02/15 01:51:58;;;;;;;116.10;51.70;;;;;;;;;;5080820;28;20230;-93
2022/02/15 01:54:26;;;;;;;113.40;50.72;;;;;;;;;;5081644;28;20241;-93
2022/02/15 01:56:52;;;;;;;119.30;50.42;;;;;;;;;;5081755;28;20233;-92
2022/02/15 01:59:19;;;;;;;109.32;48.38;;;;;;;;;;5082481;28;20226;-93
2022/02/15 02:01:45;;;;;;;107.97;50.53;;;;;;;;;;5081987;28;20203;-92
2022/02/15 02:06:53;;;;;;;108.03;49.40;;;;;;;;;;5079605;28;20221;-92
2022/02/15 02:09:19;;;;;;;104.82;46.72;;;;;;;;;;5081735;28;20213;-92
2022/02/15 02:11:47;;;;;;;102.25;48.67;;;;;;;;;;5080995;28;20226;-93
2022/02/15 02:14:13;;;;;;;99.07;46.33;;;;;;;;;;5081608;28;20230;-93
2022/02/15 02:16:41;;;;;;;101.93;48.10;;;;;;;;;;5080125;28;20195;-93
2022/02/15 02:19:07;;;;;;;105.95;48.63;;;;;;;;;;5080986;28;20207;-93
2022/02/15 02:21:36;;;;;;;112.43;49.67;;;;;;;;;;5080690;28;20201;-93
2022/02/15 02:24:02;;;;;;;105.50;46.55;;;;;;;;;;5081678;28;20237;-93
2022/02/15 02:26:29;;;;;;;106.30;48.45;;;;;;;;;;5081807;28;20192;-93
2022/02/15 02:28:55;;;;;;;102.95;48.85;;;;;;;;;;5081974;28;20306;-92
2022/02/15 02:31:22;;;;;;;109.78;49.35;;;;;;;;;;5081581;28;20218;-93
2022/02/15 02:33:48;;;;;;;103.22;46.78;;;;;;;;;;5082136;28;20230;-92
2022/02/15 02:36:15;;;;;;;113.88;51.75;;;;;;;;;;5081489;28;20263;-92
2022/02/15 02:38:43;;;;;;;109.25;47.33;;;;;;;;;;5082186;28;20672;-93
2022/02/15 02:41:09;;;;;;;106.13;49.80;;;;;;;;;;5081048;28;20727;-93
2022/02/15 02:43:36;;;;;;;110.78;50.42;;;;;;;;;;5081551;28;20285;-92
2022/02/15 02:46:02;;;;;;;110.03;50.22;;;;;;;;;;5081024;28;20209;-93
2022/02/15 02:48:29;;;;;;;108.22;50.38;;;;;;;;;;5081135;28;20203;-93
2022/02/15 02:50:55;;;;;;;104.22;46.17;;;;;;;;;;5081358;28;20218;-93
2022/02/15 02:53:22;;;;;;;111.40;49.97;;;;;;;;;;5081828;28;20643;-93
2022/02/15 02:55:49;;;;;;;112.40;50.67;;;;;;;;;;5079457;28;20485;-93
2022/02/15 02:58:16;;;;;;;112.05;50.95;;;;;;;;;;5079661;28;20199;-93
2022/02/15 03:00:42;;;;;;;115.15;49.03;;;;;;;;;;5080411;28;20245;-93
2022/02/15 03:03:09;;;;;;;109.15;49.00;;;;;;;;;;5080680;28;20300;-93
2022/02/15 03:05:36;;;;;;;105.43;48.65;;;;;;;;;;5081148;28;20253;-94
2022/02/15 03:08:02;;;;;;;112.15;48.75;;;;;;;;;;5081324;28;20212;-93
2022/02/15 03:10:29;;;;;;;104.50;48.47;;;;;;;;;;5081243;28;20203;-93
2022/02/15 03:12:57;;;;;;;106.25;49.47;;;;;;;;;;5081058;28;20199;-93
2022/02/15 03:15:23;;;;;;;106.60;47.47;;;;;;;;;;5079833;28;20261;-93
2022/02/15 03:17:50;;;;;;;107.97;49.80;;;;;;;;;;5079524;28;20207;-93
2022/02/15 03:20:16;;;;;;;107.10;49.90;;;;;;;;;;5079212;28;20203;-93
2022/02/15 03:22:43;;;;;;;109.30;49.60;;;;;;;;;;5080501;28;20690;-93
2022/02/15 03:25:09;;;;;;;106.05;48.78;;;;;;;;;;5083230;28;20199;-93
2022/02/15 03:27:36;;;;;;;108.93;50.50;;;;;;;;;;5082735;28;20203;-93
2022/02/15 03:30:04;;;;;;;102.15;48.10;;;;;;;;;;5084600;28;20199;-93
2022/02/15 03:32:31;;;;;;;113.15;52.20;;;;;;;;;;5084746;28;20199;-93
2022/02/15 03:34:57;;;;;;;110.07;48.75;;;;;;;;;;5084934;28;20226;-93
2022/02/15 03:37:24;;;;;;;110.43;49.13;;;;;;;;;;5084214;28;20192;-93
2022/02/15 03:39:50;;;;;;;108.68;48.78;;;;;;;;;;5084673;28;21851;-93
2022/02/15 03:45:00;;;;;;;98.20;45.42;;;;;;;;;;5085149;28;20197;-93
2022/02/15 03:47:28;;;;;;;100.60;46.47;;;;;;;;;;5084629;28;20192;-92
2022/02/15 03:49:55;;;;;;;104.38;48.65;;;;;;;;;;5085027;28;20199;-92
2022/02/15 03:52:21;;;;;;;110.05;49.78;;;;;;;;;;5084508;28;20195;-93
2022/02/15 03:54:48;;;;;;;108.55;50.45;;;;;;;;;;5084636;28;20254;-92
2022/02/15 03:57:14;;;;;;;111.30;51.13;;;;;;;;;;5084508;28;20207;-93
2022/02/15 03:59:41;;;;;;;105.47;48.40;;;;;;;;;;5084093;28;20564;-93
2022/02/15 04:02:07;;;;;;;103.72;49.13;;;;;;;;;;5083447;28;20252;-93
2022/02/15 04:04:35;;;;;;;116.20;49.75;;;;;;;;;;5064755;28;20236;-93
2022/02/15 04:07:01;;;;;;;111.88;51.78;;;;;;;;;;5051159;28;20204;-93
2022/02/15 04:09:28;;;;;;;115.95;53.72;;;;;;;;;;5043822;28;20216;-92
2022/02/15 04:11:54;;;;;;;106.22;48.75;;;;;;;;;;5043140;28;20192;-92
2022/02/15 04:14:21;;;;;;;111.47;49.95;;;;;;;;;;5043217;28;20200;-93
2022/02/15 04:16:47;;;;;;;110.07;49.28;;;;;;;;;;5042790;28;20197;-93
2022/02/15 04:19:14;;;;;;;106.45;47.15;;;;;;;;;;5043265;28;20197;-93
2022/02/15 04:21:41;;;;;;;115.72;49.60;;;;;;;;;;5043320;28;20193;-92
2022/02/15 04:24:08;;;;;;;107.47;48.40;;;;;;;;;;5043142;28;20208;-93
2022/02/15 04:26:34;;;;;;;112.07;48.58;;;;;;;;;;5041685;28;20548;-93
2022/02/15 04:29:01;;;;;;;102.43;48.45;;;;;;;;;;5041863;28;20208;-93
2022/02/15 04:31:27;;;;;;;108.72;45.10;;;;;;;;;;5043485;28;20200;-92
2022/02/15 04:33:54;;;;;;;103.47;47.88;;;;;;;;;;5042735;28;20339;-92
2022/02/15 04:36:20;;;;;;;110.32;50.75;;;;;;;;;;5042548;28;20270;-93
2022/02/15 04:38:48;;;;;;;110.28;49.50;;;;;;;;;;5042742;28;20236;-92
2022/02/15 04:41:15;;;;;;;99.97;46.60;;;;;;;;;;5043347;28;20196;-92
2022/02/15 04:43:41;;;;;;;115.60;48.70;;;;;;;;;;5043439;28;20205;-92
2022/02/15 04:46:07;;;;;;;108.22;49.00;;;;;;;;;;5042433;28;20201;-93
2022/02/15 04:48:34;;;;;;;102.07;47.22;;;;;;;;;;5041870;28;20204;-93
2022/02/15 04:51:00;;;;;;;102.32;49.05;;;;;;;;;;5042076;28;20696;-93
2022/02/15 04:53:27;;;;;;;101.90;48.88;;;;;;;;;;5041694;28;20204;-92
2022/02/15 04:55:55;;;;;;;101.57;46.70;;;;;;;;;;5043740;28;20263;-92
2022/02/15 04:58:21;;;;;;;115.75;49.45;;;;;;;;;;5043340;28;20204;-93
2022/02/15 05:00:49;;;;;;;98.97;45.95;;;;;;;;;;5043378;28;20204;-92
2022/02/15 05:03:15;;;;;;;114.90;49.55;;;;;;;;;;5051452;28;20231;-93
2022/02/15 05:05:42;;;;;;;113.35;51.67;;;;;;;;;;5063116;28;20200;-93
2022/02/15 05:08:08;;;;;;;108.20;50.25;;;;;;;;;;5063210;28;20200;-93
2022/02/15 05:10:35;;;;;;;107.50;48.15;;;;;;;;;;5063308;28;20963;-93
2022/02/15 05:13:06;;;;;;;109.15;48.67;;;;;;;;;;5063131;28;20196;-93
2022/02/15 05:15:33;;;;;;;105.95;49.60;;;;;;;;;;5062237;28;20246;-93
2022/02/15 05:17:59;;;;;;;108.45;50.53;;;;;;;;;;5061763;28;20226;-92
2022/02/15 05:20:26;;;;;;;107.97;49.63;;;;;;;;;;5062549;28;20200;-92
2022/02/15 05:22:52;;;;;;;102.45;47.92;;;;;;;;;;5062032;28;20904;-93
2022/02/15 05:25:19;;;;;;;107.25;48.47;;;;;;;;;;5061258;28;20272;-92
2022/02/15 05:27:45;;;;;;;110.32;48.88;;;;;;;;;;5059950;28;20196;-93
2022/02/15 05:30:14;;;;;;;102.82;48.42;;;;;;;;;;5061269;28;20204;-93
2022/02/15 05:32:40;;;;;;;102.60;47.58;;;;;;;;;;5062027;28;20222;-93
2022/02/15 05:35:08;;;;;;;108.38;48.17;;;;;;;;;;5061417;28;20231;-93
2022/02/15 05:37:34;;;;;;;98.40;47.65;;;;;;;;;;5074037;28;20207;-93
2022/02/15 05:40:02;;;;;;;110.43;48.28;;;;;;;;;;5081168;28;20199;-93
2022/02/15 05:42:29;;;;;;;107.47;49.70;;;;;;;;;;5080171;28;20222;-93
2022/02/15 05:44:55;;;;;;;105.78;48.38;;;;;;;;;;5081077;28;20252;-93
2022/02/15 05:47:23;;;;;;;115.45;47.10;;;;;;;;;;5080910;28;20223;-93
2022/02/15 05:52:34;;;;;;;106.82;49.10;;;;;;;;;;5081535;28;20238;-93
2022/02/15 05:55:00;;;;;;;107.35;48.60;;;;;;;;;;5082085;28;20231;-93
2022/02/15 05:57:28;;;;;;;109.88;51.45;;;;;;;;;;5081811;28;20191;-93
2022/02/15 05:59:55;;;;;;;102.30;51.03;;;;;;;;;;5082489;28;20318;-93
2022/02/15 06:02:23;;;;;;;115.38;51.33;;;;;;;;;;5081379;28;20199;-92
2022/02/15 06:04:49;;;;;;;110.13;50.63;;;;;;;;;;5072715;28;20266;-92
2022/02/15 06:07:16;;;;;;;102.80;47.95;;;;;;;;;;5069610;28;20249;-93
2022/02/15 06:09:42;;;;;;;110.53;50.08;;;;;;;;;;5081787;28;20207;-92
2022/02/15 06:12:09;;;;;;;110.25;52.13;;;;;;;;;;5077786;28;20229;-93
2022/02/15 06:14:36;;;;;;;117.13;52.35;;;;;;;;;;5081348;28;20203;-93
2022/02/15 06:17:02;;;;;;;108.18;51.47;;;;;;;;;;5080952;28;20222;-92
2022/02/15 06:19:31;;;;;;;108.35;48.80;;;;;;;;;;5082108;28;20207;-92
2022/02/15 06:21:57;;;;;;;123.00;52.60;;;;;;;;;;5081250;28;20240;-92
2022/02/15 06:24:24;;;;;;;115.03;52.78;;;;;;;;;;5081252;28;20203;-92
2022/02/15 06:26:50;;;;;;;109.22;51.00;;;;;;;;;;5078185;28;20201;-94
2022/02/15 06:29:17;;;;;;;113.13;50.50;;;;;;;;;;5079976;28;20272;-93
2022/02/15 06:31:43;;;;;;;112.85;51.90;;;;;;;;;;5081270;28;20207;-94
2022/02/15 06:34:10;;;;;;;119.22;52.40;;;;;;;;;;5081547;28;20226;-93
2022/02/15 06:36:38;;;;;;;131.55;62.40;;;;;;;;;;5079692;28;20288;-93
2022/02/15 06:39:09;;;;;;;145.30;62.60;;;;;;;;;;5060849;28;20755;-93
2022/02/15 06:41:35;;;;;;;150.50;67.75;;;;;;;;;;5060659;28;20212;-94
2022/02/15 06:44:02;;;;;;;163.38;71.03;;;;;;;;;;5061406;28;20216;-93
2022/02/15 06:46:28;;;;;;;155.52;68.18;;;;;;;;;;5061286;28;20301;-93
2022/02/15 06:48:55;;;;;;;146.52;66.18;;;;;;;;;;5061457;28;20199;-93
2022/02/15 06:51:21;;;;;;;147.18;66.07;;;;;;;;;;5060038;28;20203;-93
2022/02/15 06:53:49;;;;;;;143.75;66.13;;;;;;;;;;5060068;28;20196;-93
2022/02/15 06:56:16;;;;;;;155.90;72.03;;;;;;;;;;5061045;28;20255;-93
2022/02/15 06:58:43;;;;;;;164.60;69.50;;;;;;;;;;5064763;28;20262;-93
2022/02/15 07:01:09;;;;;;;134.45;64.97;;;;;;;;;;5064306;28;20208;-93
2022/02/15 07:03:36;;;;;;;135.95;64.72;;;;;;;;;;5064288;28;20295;-93
2022/02/15 07:06:03;;;;;;;131.95;66.45;;;;;;;;;;5062849;28;20222;-93
2022/02/15 07:08:29;;;;;;;135.05;64.20;;;;;;;;;;5064358;28;20277;-93
2022/02/15 07:10:57;;;;;;;134.05;60.72;;;;;;;;;;5065458;28;20204;-93
2022/02/15 07:13:25;;;;;;;133.95;63.15;;;;;;;;;;5064969;28;20200;-92
2022/02/15 07:15:51;;;;;;;142.77;64.20;;;;;;;;;;5063325;28;20250;-92
2022/02/15 07:18:18;;;;;;;147.45;66.72;;;;;;;;;;5061935;28;20249;-93
2022/02/15 07:20:45;;;;;;;143.25;64.88;;;;;;;;;;5061000;28;20277;-93
2022/02/15 07:23:13;;;;;;;152.80;66.40;;;;;;;;;;5061503;28;20702;-93
2022/02/15 07:25:39;;;;;;;136.52;63.47;;;;;;;;;;5063602;28;20214;-94
2022/02/15 07:28:07;;;;;;;135.82;63.55;;;;;;;;;;5063238;28;20192;-93
2022/02/15 07:30:35;;;;;;;131.23;63.65;;;;;;;;;;5064360;28;20218;-94
2022/02/15 07:33:02;;;;;;;137.20;64.47;;;;;;;;;;5063464;28;20215;-94
2022/02/15 07:35:29;;;;;;;138.13;64.93;;;;;;;;;;5064728;28;20258;-94
2022/02/15 07:37:56;;;;;;;134.10;63.42;;;;;;;;;;5064568;28;20199;-95
2022/02/15 07:40:22;;;;;;;143.35;66.65;;;;;;;;;;5063943;28;20210;-94
2022/02/15 07:42:49;;;;;;;138.10;64.18;;;;;;;;;;5063956;28;20226;-96
2022/02/15 07:45:19;;;;;;;124.00;59.83;;;;;;;;;;5065087;28;20951;-93
2022/02/15 07:47:47;;;;;;;133.88;63.08;;;;;;;;;;5064258;28;20227;-94
2022/02/15 07:50:13;;;;;;;124.95;61.63;;;;;;;;;;5063317;28;20234;-93
2022/02/15 07:52:40;;;;;;;125.05;61.30;;;;;;;;;;5060522;28;20656;-94
2022/02/15 07:55:07;;;;;;;130.70;61.92;;;;;;;;;;5057996;28;20199;-93
2022/02/15 07:57:33;;;;;;;122.85;57.10;;;;;;;;;;5062648;28;20216;-93
2022/02/15 07:59:59;;;;;;;113.30;55.65;;;;;;;;;;5064122;28;20200;-92
2022/02/15 08:02:27;;;;;;;115.30;56.92;;;;;;;;;;5061756;28;20200;-92
2022/02/15 08:04:54;;;;;;;113.40;55.45;;;;;;;;;;5063925;28;20204;-91
2022/02/15 08:07:20;;;;;;;116.30;55.92;;;;;;;;;;5062895;28;20203;-92
2022/02/15 08:09:47;;;;;;;112.05;55.55;;;;;;;;;;5063320;28;20200;-92
2022/02/15 08:12:17;;;;;;;111.32;54.55;;;;;;;;;;5064933;28;20569;-92
2022/02/15 08:14:44;;;;;;;110.80;54.28;;;;;;;;;;5064535;28;20323;-94
2022/02/15 08:17:10;;;;;;;113.50;56.35;;;;;;;;;;5063642;28;20281;-92
2022/02/15 08:19:38;;;;;;;114.20;54.63;;;;;;;;;;5064098;28;20208;-91
2022/02/15 08:22:05;;;;;;;109.55;54.38;;;;;;;;;;5064218;28;20598;-92
2022/02/15 08:24:32;;;;;;;106.57;54.65;;;;;;;;;;5064271;28;20196;-92
2022/02/15 08:27:00;;;;;;;105.20;53.77;;;;;;;;;;5063940;28;20261;-92
2022/02/15 08:29:27;;;;;;;106.77;52.67;;;;;;;;;;5063714;28;20477;-93
2022/02/15 08:31:54;;;;;;;101.50;51.90;;;;;;;;;;5062132;28;20443;-92
2022/02/15 08:34:20;;;;;;;105.60;52.00;;;;;;;;;;5062397;28;20837;-94
2022/02/15 08:36:48;;;;;;;103.53;51.60;;;;;;;;;;5063363;28;20498;-91
2022/02/15 08:39:15;;;;;;;104.80;52.80;;;;;;;;;;5063510;28;20515;-92
2022/02/15 08:41:42;;;;;;;101.10;52.07;;;;;;;;;;5064612;28;20557;-92
2022/02/15 08:44:08;;;;;;;101.03;53.23;;;;;;;;;;5079010;28;20521;-91
2022/02/15 08:46:35;;;;;;;104.07;49.70;;;;;;;;;;5078734;28;20531;-94
2022/02/15 08:49:01;;;;;;;105.33;53.93;;;;;;;;;;5075941;28;20475;-93
2022/02/15 08:51:28;;;;;;;106.93;55.97;;;;;;;;;;5082344;28;20579;-93
2022/02/15 08:53:56;;;;;;;107.27;52.20;;;;;;;;;;5083269;28;20476;-92
2022/02/15 08:56:23;;;;;;;106.27;52.40;;;;;;;;;;5079346;28;20481;-91
2022/02/15 08:58:49;;;;;;;101.73;51.47;;;;;;;;;;5081248;28;20437;-92
2022/02/15 09:01:16;;;;;;;105.10;53.00;;;;;;;;;;5083838;28;20437;-91
2022/02/15 09:03:43;;;;;;;102.67;51.30;;;;;;;;;;5073426;28;20478;-91
2022/02/15 09:06:10;;;;;;;101.37;51.63;;;;;;;;;;5045838;28;20453;-92
2022/02/15 09:08:36;;;;;;;106.23;54.40;;;;;;;;;;5063149;28;20534;-91
2022/02/15 09:11:04;;;;;;;101.50;53.60;;;;;;;;;;5062665;28;20443;-91
2022/02/15 09:13:31;;;;;;;100.37;52.90;;;;;;;;;;5062410;28;20447;-91
2022/02/15 09:15:57;;;;;;;104.97;52.53;;;;;;;;;;5061593;28;20514;-91
2022/02/15 09:18:24;;;;;;;99.93;50.83;;;;;;;;;;5062384;28;20965;-91
2022/02/15 09:20:50;;;;;;;101.63;52.60;;;;;;;;;;5063125;28;20446;-92
2022/02/15 09:23:17;;;;;;;104.33;52.60;;;;;;;;;;5064101;28;20454;-92
2022/02/15 09:25:43;;;;;;;104.90;52.73;;;;;;;;;;5063044;28;20528;-93
2022/02/15 09:28:11;;;;;;;104.17;52.23;;;;;;;;;;5062305;28;20454;-92
2022/02/15 09:30:38;;;;;;;106.37;53.23;;;;;;;;;;5062658;28;20454;-91
2022/02/15 09:33:04;;;;;;;102.47;52.27;;;;;;;;;;5062638;28;20492;-91
2022/02/15 09:35:31;;;;;;;104.87;53.33;;;;;;;;;;5061972;28;20485;-92
2022/02/15 09:37:57;;;;;;;100.50;51.37;;;;;;;;;;5062644;28;20543;-92
2022/02/15 09:40:24;;;;;;;102.87;53.90;;;;;;;;;;5062622;28;20443;-93
2022/02/15 09:42:50;;;;;;;110.10;53.73;;;;;;;;;;5062694;28;20449;-96
2022/02/15 09:45:18;;;;;;;100.37;51.10;;;;;;;;;;5044796;28;20443;-92
2022/02/15 09:47:45;;;;;;;103.47;53.17;;;;;;;;;;5062491;28;20447;-92
2022/02/15 09:50:11;;;;;;;108.57;54.47;;;;;;;;;;5062300;28;20446;-94
2022/02/15 09:52:45;;;;;;;103.40;52.20;;;;;;;;;;5061789;28;20493;-92
2022/02/15 09:55:12;;;;;;;107.30;55.97;;;;;;;;;;5061513;28;20521;-93
2022/02/15 09:57:39;;;;;;;108.60;55.90;;;;;;;;;;5060577;28;20486;-92
2022/02/15 10:00:06;;;;;;;104.03;52.67;;;;;;;;;;5061830;28;20453;-92
2022/02/15 10:02:36;;;;;;;103.37;54.43;;;;;;;;;;5062234;28;20451;-93
2022/02/15 10:05:03;;;;;;;104.07;54.50;;;;;;;;;;5062081;28;21012;-92
2022/02/15 10:07:29;;;;;;;105.47;54.70;;;;;;;;;;5061363;28;20462;-92
2022/02/15 10:09:57;;;;;;;108.30;56.03;;;;;;;;;;5061777;28;20518;-95
2022/02/15 10:12:25;;;;;;;105.67;55.23;;;;;;;;;;5061474;28;20447;-92
2022/02/15 10:14:52;;;;;;;104.27;53.50;;;;;;;;;;5061021;28;20518;-91
2022/02/15 10:17:19;;;;;;;101.53;53.30;;;;;;;;;;5060149;28;20520;-94
2022/02/15 10:19:48;;;;;;;100.63;53.00;;;;;;;;;;5060225;28;20446;-92
2022/02/15 10:22:15;;;;;;;105.73;55.70;;;;;;;;;;5059512;28;20548;-91
2022/02/15 10:24:42;;;;;;;99.77;53.37;;;;;;;;;;5060209;28;20474;-93
2022/02/15 10:27:10;;;;;;;103.77;53.87;;;;;;;;;;5061025;28;20450;-93
2022/02/15 10:29:37;;;;;;;108.50;55.30;;;;;;;;;;5061396;28;20458;-94
2022/02/15 10:32:05;;;;;;;108.00;56.50;;;;;;;;;;5060825;28;20454;-91
2022/02/15 10:34:32;;;;;;;105.47;55.10;;;;;;;;;;5061717;28;20447;-93
2022/02/15 10:37:04;;;;;;;104.40;54.97;;;;;;;;;;5061766;28;20502;-95
2022/02/15 10:39:40;;;;;;;104.47;54.37;;;;;;;;;;5062211;28;20446;-92
2022/02/15 10:42:08;;;;;;;103.20;54.13;;;;;;;;;;5060897;28;20515;-95
2022/02/15 10:44:51;;;;;;;109.60;59.83;;;;;;;;;;5060373;28;21377;-92
2022/02/15 10:47:18;;;;;;;111.70;57.73;;;;;;;;;;5058678;28;20480;-93
2022/02/15 10:49:45;;;;;;;105.00;55.77;;;;;;;;;;5060351;28;20519;-93
2022/02/15 10:52:14;;;;;;;106.27;56.60;;;;;;;;;;5060093;28;20462;-91
2022/02/15 10:54:40;;;;;;;109.50;56.20;;;;;;;;;;5060389;28;20514;-90
2022/02/15 10:57:10;;;;;;;109.10;55.87;;;;;;;;;;5060201;28;20494;-90
2022/02/15 10:59:37;;;;;;;109.00;56.60;;;;;;;;;;5061035;28;20504;-91
2022/02/15 11:02:04;;;;;;;106.20;54.80;;;;;;;;;;5061567;28;20450;-89
2022/02/15 11:04:31;;;;;;;109.00;55.70;;;;;;;;;;5061634;28;20474;-92
2022/02/15 11:06:57;;;;;;;105.77;55.83;;;;;;;;;;5061418;28;20455;-90
2022/02/15 11:09:32;;;;;;;111.93;56.43;;;;;;;;;;5061694;28;20473;-93
2022/02/15 11:12:04;;;;;;;106.00;56.33;;;;;;;;;;5060254;28;20492;-93
2022/02/15 11:14:31;;;;;;;106.60;56.63;;;;;;;;;;5061317;28;20446;-94
2022/02/15 11:16:58;;;;;;;104.70;54.40;;;;;;;;;;5061045;28;20490;-93
2022/02/15 11:19:33;;;;;;;103.23;54.90;;;;;;;;;;5060643;28;20442;-90
2022/02/15 11:21:59;;;;;;;106.33;55.47;;;;;;;;;;5060965;28;20493;-91
2022/02/15 11:24:29;;;;;;;104.07;54.87;;;;;;;;;;5061498;28;20439;-94
2022/02/15 11:26:56;;;;;;;102.40;54.00;;;;;;;;;;5061723;28;20442;-96
2022/02/15 11:29:23;;;;;;;103.77;54.60;;;;;;;;;;5061546;28;20438;-91
2022/02/15 11:31:50;;;;;;;103.77;55.90;;;;;;;;;;5061441;28;20443;-93
2022/02/15 11:34:17;;;;;;;104.97;55.87;;;;;;;;;;5061532;28;20453;-92
2022/02/15 11:36:47;;;;;;;102.90;55.50;;;;;;;;;;5060896;28;20458;-95
2022/02/15 11:39:17;;;;;;;103.57;55.33;;;;;;;;;;5061331;28;20475;-90
2022/02/15 11:41:46;;;;;;;104.80;56.90;;;;;;;;;;5062081;28;20500;-93
2022/02/15 11:44:14;;;;;;;103.57;55.90;;;;;;;;;;5063333;28;20450;-91
2022/02/15 11:46:43;;;;;;;104.40;56.67;;;;;;;;;;5065079;28;20872;-91
2022/02/15 11:49:10;;;;;;;103.07;55.67;;;;;;;;;;5064796;28;20977;-93
2022/02/15 11:51:37;;;;;;;106.77;56.17;;;;;;;;;;5063796;28;20488;-93
2022/02/15 11:54:05;;;;;;;103.17;55.07;;;;;;;;;;5064311;28;20474;-91
2022/02/15 11:56:31;;;;;;;103.67;55.27;;;;;;;;;;5063766;28;20450;-91
2022/02/15 11:58:59;;;;;;;102.37;54.47;;;;;;;;;;5063793;28;20442;-93
2022/02/15 12:01:27;;;;;;;108.60;56.60;;;;;;;;;;5063796;28;20954;-93
2022/02/15 12:03:54;;;;;;;112.50;57.00;;;;;;;;;;5063438;28;20516;-93
2022/02/15 12:06:21;;;;;;;108.00;58.47;;;;;;;;;;5064074;28;20454;-91
2022/02/15 12:08:55;;;;;;;106.07;55.47;;;;;;;;;;5064391;28;20485;-96
2022/02/15 12:11:31;;;;;;;99.90;53.07;;;;;;;;;;5064885;28;20477;-94
2022/02/15 12:14:05;;;;;;;107.93;57.27;;;;;;;;;;5064661;28;20529;-93
2022/02/15 12:16:39;;;;;;;103.40;54.83;;;;;;;;;;5064678;28;20450;-94
2022/02/15 12:19:07;;;;;;;105.33;57.73;;;;;;;;;;5064356;28;20481;-92
2022/02/15 12:21:38;;;;;;;105.07;55.73;;;;;;;;;;5062292;28;20958;-94
2022/02/15 12:24:04;;;;;;;103.83;56.10;;;;;;;;;;5062425;28;20469;-93
2022/02/15 12:26:31;;;;;;;102.87;54.97;;;;;;;;;;5064367;28;20447;-96
2022/02/15 12:28:59;;;;;;;109.40;57.70;;;;;;;;;;5063629;28;20463;-92
2022/02/15 12:31:25;;;;;;;111.80;59.80;;;;;;;;;;5063588;28;20454;-91
2022/02/15 12:33:52;;;;;;;108.10;57.43;;;;;;;;;;5063712;28;20520;-94
2022/02/15 12:36:18;;;;;;;107.77;56.37;;;;;;;;;;5063417;28;20504;-91
2022/02/15 12:38:45;;;;;;;108.93;57.17;;;;;;;;;;5063333;28;20495;-93
2022/02/15 12:41:14;;;;;;;110.87;57.97;;;;;;;;;;5063794;28;20524;-92
2022/02/15 12:43:41;;;;;;;108.77;57.60;;;;;;;;;;5064081;28;20460;-91
2022/02/15 12:46:09;;;;;;;104.27;57.80;;;;;;;;;;5063944;28;20466;-91
2022/02/15 12:48:36;;;;;;;108.90;57.53;;;;;;;;;;5063628;28;20474;-92
2022/02/15 12:51:03;;;;;;;107.10;56.40;;;;;;;;;;5063955;28;20454;-91
2022/02/15 12:53:29;;;;;;;109.47;58.50;;;;;;;;;;5063494;28;20918;-94
2022/02/15 12:55:56;;;;;;;108.67;57.40;;;;;;;;;;5062734;28;20446;-96
2022/02/15 12:58:22;;;;;;;108.80;58.37;;;;;;;;;;5061918;28;20524;-95
2022/02/15 13:00:49;;;;;;;105.47;55.83;;;;;;;;;;5063148;28;20516;-94
2022/02/15 13:03:19;;;;;;;106.97;57.07;;;;;;;;;;5063236;28;20562;-95
2022/02/15 13:05:46;;;;;;;112.57;59.00;;;;;;;;;;5063142;28;20454;-91
2022/02/15 13:08:17;;;;;;;109.83;57.97;;;;;;;;;;5062618;28;20462;-93
2022/02/15 13:10:43;;;;;;;115.10;58.60;;;;;;;;;;5063291;28;20451;-94
2022/02/15 13:13:11;;;;;;;105.97;56.53;;;;;;;;;;5063303;28;20450;-94
2022/02/15 13:15:37;;;;;;;108.17;58.60;;;;;;;;;;5063147;28;20518;-91
2022/02/15 13:18:04;;;;;;;105.87;57.57;;;;;;;;;;5063179;28;20485;-92
2022/02/15 13:20:36;;;;;;;107.47;58.47;;;;;;;;;;5062365;28;20450;-94
2022/02/15 13:23:04;;;;;;;110.07;58.27;;;;;;;;;;5060907;28;20481;-92
2022/02/15 13:25:37;;;;;;;108.30;56.77;;;;;;;;;;5061692;28;20878;-93
2022/02/15 13:28:04;;;;;;;110.20;58.47;;;;;;;;;;5061852;28;20477;-93
2022/02/15 13:30:30;;;;;;;107.87;56.50;;;;;;;;;;5062113;28;20447;-93
2022/02/15 13:33:01;;;;;;;106.50;57.00;;;;;;;;;;5062135;28;20468;-91
2022/02/15 13:35:27;;;;;;;108.37;56.73;;;;;;;;;;5061885;28;20485;-91
2022/02/15 13:37:58;;;;;;;109.90;58.63;;;;;;;;;;5061126;28;20553;-92
2022/02/15 13:40:25;;;;;;;109.47;58.03;;;;;;;;;;5059987;28;20883;-88
2022/02/15 13:42:52;;;;;;;109.93;58.57;;;;;;;;;;5057849;28;20850;-93
2022/02/15 13:45:18;;;;;;;105.90;55.40;;;;;;;;;;5061928;28;20450;-91
2022/02/15 13:47:45;;;;;;;109.07;56.33;;;;;;;;;;5062255;28;20486;-92
2022/02/15 13:50:11;;;;;;;105.90;57.47;;;;;;;;;;5062418;28;20442;-90
2022/02/15 13:52:38;;;;;;;109.20;57.30;;;;;;;;;;5060094;28;20894;-92
2022/02/15 13:55:06;;;;;;;110.40;57.83;;;;;;;;;;5061016;28;20438;-94
2022/02/15 13:57:33;;;;;;;107.07;56.23;;;;;;;;;;5061514;28;20573;-95
2022/02/15 14:00:00;;;;;;;103.77;55.13;;;;;;;;;;5062292;28;20447;-90
2022/02/15 14:02:28;;;;;;;106.47;56.43;;;;;;;;;;5061567;28;20458;-96
2022/02/15 14:04:55;;;;;;;108.13;57.13;;;;;;;;;;5062048;28;20957;-94
2022/02/15 14:07:21;;;;;;;106.03;56.20;;;;;;;;;;5060644;28;20458;-92
2022/02/15 14:09:48;;;;;;;114.93;56.77;;;;;;;;;;5061991;28;20450;-95
2022/02/15 14:12:18;;;;;;;109.70;56.70;;;;;;;;;;5062506;28;20451;-96